sensor_id;sensor_type;location;lat;lon;timestamp;P1;durP1;ratioP1;P2;durP2;ratioP2
50968;SDS011;36982;51.474;7.228;2022-10-18T00:01:26;4.10;;;3.43;;
50968;SDS011;36982;51.474;7.228;2022-10-18T00:03:52;5.30;;;3.47;;
50968;SDS011;36982;51.474;7.228;2022-10-18T00:06:17;4.07;;;3.37;;
50968;SDS011;36982;51.474;7.228;2022-10-18T00:08:43;4.83;;;3.40;;
50968;SDS011;36982;51.474;7.228;2022-10-18T00:11:08;3.97;;;3.03;;
50968;SDS011;36982;51.474;7.228;2022-10-18T00:13:34;6.40;;;3.13;;
50968;SDS011;36982;51.474;7.228;2022-10-18T00:16:00;6.57;;;3.00;;
50968;SDS011;36982;51.474;7.228;2022-10-18T00:18:28;4.20;;;3.33;;
50968;SDS011;36982;51.474;7.228;2022-10-18T00:20:55;5.70;;;3.20;;
50968;SDS011;36982;51.474;7.228;2022-10-18T00:23:25;4.73;;;3.10;;
50968;SDS011;36982;51.474;7.228;2022-10-18T00:25:59;4.27;;;2.87;;
50968;SDS011;36982;51.474;7.228;2022-10-18T00:28:29;4.90;;;3.00;;
50968;SDS011;36982;51.474;7.228;2022-10-18T00:30:55;6.40;;;3.00;;
50968;SDS011;36982;51.474;7.228;2022-10-18T00:33:21;5.40;;;3.13;;
50968;SDS011;36982;51.474;7.228;2022-10-18T00:35:47;5.23;;;2.83;;
50968;SDS011;36982;51.474;7.228;2022-10-18T00:38:12;5.87;;;3.00;;
50968;SDS011;36982;51.474;7.228;2022-10-18T00:40:38;5.73;;;3.63;;
50968;SDS011;36982;51.474;7.228;2022-10-18T00:43:03;6.67;;;2.87;;
50968;SDS011;36982;51.474;7.228;2022-10-18T00:45:29;3.87;;;3.00;;
50968;SDS011;36982;51.474;7.228;2022-10-18T00:47:57;4.47;;;3.03;;
50968;SDS011;36982;51.474;7.228;2022-10-18T00:50:26;6.30;;;3.43;;
50968;SDS011;36982;51.474;7.228;2022-10-18T00:52:55;4.33;;;3.20;;
50968;SDS011;36982;51.474;7.228;2022-10-18T00:55:25;4.97;;;2.70;;
50968;SDS011;36982;51.474;7.228;2022-10-18T00:57:51;4.37;;;3.00;;
50968;SDS011;36982;51.474;7.228;2022-10-18T01:00:18;4.27;;;2.90;;
50968;SDS011;36982;51.474;7.228;2022-10-18T01:02:44;4.90;;;3.17;;
50968;SDS011;36982;51.474;7.228;2022-10-18T01:05:12;6.03;;;2.83;;
50968;SDS011;36982;51.474;7.228;2022-10-18T01:07:58;6.30;;;3.10;;
50968;SDS011;36982;51.474;7.228;2022-10-18T01:10:48;5.07;;;2.53;;
50968;SDS011;36982;51.474;7.228;2022-10-18T01:13:30;4.73;;;2.70;;
50968;SDS011;36982;51.474;7.228;2022-10-18T01:32:47;3.27;;;2.77;;
50968;SDS011;36982;51.474;7.228;2022-10-18T01:35:17;3.77;;;3.10;;
50968;SDS011;36982;51.474;7.228;2022-10-18T01:37:47;5.03;;;2.70;;
50968;SDS011;36982;51.474;7.228;2022-10-18T01:40:15;3.73;;;2.70;;
50968;SDS011;36982;51.474;7.228;2022-10-18T01:42:44;3.10;;;2.10;;
50968;SDS011;36982;51.474;7.228;2022-10-18T01:45:12;3.37;;;2.47;;
50968;SDS011;36982;51.474;7.228;2022-10-18T01:47:39;4.40;;;2.20;;
50968;SDS011;36982;51.474;7.228;2022-10-18T01:50:06;5.10;;;2.63;;
50968;SDS011;36982;51.474;7.228;2022-10-18T01:52:33;3.03;;;2.63;;
50968;SDS011;36982;51.474;7.228;2022-10-18T01:54:59;3.80;;;2.50;;
50968;SDS011;36982;51.474;7.228;2022-10-18T01:57:44;3.97;;;2.30;;
50968;SDS011;36982;51.474;7.228;2022-10-18T02:00:37;3.00;;;2.17;;
50968;SDS011;36982;51.474;7.228;2022-10-18T02:05:49;3.77;;;2.30;;
50968;SDS011;36982;51.474;7.228;2022-10-18T02:08:27;4.03;;;2.33;;
50968;SDS011;36982;51.474;7.228;2022-10-18T02:11:03;4.20;;;2.50;;
50968;SDS011;36982;51.474;7.228;2022-10-18T02:13:50;4.90;;;2.83;;
50968;SDS011;36982;51.474;7.228;2022-10-18T02:16:20;3.97;;;2.50;;
50968;SDS011;36982;51.474;7.228;2022-10-18T02:18:57;2.80;;;2.43;;
50968;SDS011;36982;51.474;7.228;2022-10-18T02:21:26;4.27;;;2.80;;
50968;SDS011;36982;51.474;7.228;2022-10-18T02:23:53;2.97;;;2.40;;
50968;SDS011;36982;51.474;7.228;2022-10-18T02:26:22;4.07;;;2.67;;
50968;SDS011;36982;51.474;7.228;2022-10-18T02:28:48;2.80;;;2.40;;
50968;SDS011;36982;51.474;7.228;2022-10-18T02:31:23;3.00;;;2.30;;
50968;SDS011;36982;51.474;7.228;2022-10-18T02:33:59;4.20;;;2.70;;
50968;SDS011;36982;51.474;7.228;2022-10-18T02:36:27;3.37;;;2.40;;
50968;SDS011;36982;51.474;7.228;2022-10-18T02:39:03;4.30;;;2.70;;
50968;SDS011;36982;51.474;7.228;2022-10-18T02:41:31;3.07;;;2.47;;
50968;SDS011;36982;51.474;7.228;2022-10-18T02:43:57;3.90;;;3.00;;
50968;SDS011;36982;51.474;7.228;2022-10-18T02:46:23;4.13;;;2.73;;
50968;SDS011;36982;51.474;7.228;2022-10-18T02:48:49;3.97;;;2.90;;
50968;SDS011;36982;51.474;7.228;2022-10-18T02:51:15;2.97;;;2.67;;
50968;SDS011;36982;51.474;7.228;2022-10-18T02:53:41;3.07;;;2.73;;
50968;SDS011;36982;51.474;7.228;2022-10-18T02:56:06;4.75;;;2.15;;
50968;SDS011;36982;51.474;7.228;2022-10-18T02:58:32;4.33;;;2.40;;
50968;SDS011;36982;51.474;7.228;2022-10-18T03:00:58;5.03;;;3.30;;
50968;SDS011;36982;51.474;7.228;2022-10-18T03:03:23;3.30;;;2.60;;
50968;SDS011;36982;51.474;7.228;2022-10-18T03:05:49;5.77;;;3.00;;
50968;SDS011;36982;51.474;7.228;2022-10-18T03:08:15;4.20;;;2.70;;
50968;SDS011;36982;51.474;7.228;2022-10-18T03:10:45;3.40;;;2.60;;
50968;SDS011;36982;51.474;7.228;2022-10-18T03:13:11;3.83;;;2.60;;
50968;SDS011;36982;51.474;7.228;2022-10-18T03:15:37;7.33;;;3.20;;
50968;SDS011;36982;51.474;7.228;2022-10-18T03:18:03;3.73;;;2.20;;
50968;SDS011;36982;51.474;7.228;2022-10-18T03:20:28;3.67;;;2.40;;
50968;SDS011;36982;51.474;7.228;2022-10-18T03:22:54;3.00;;;2.37;;
50968;SDS011;36982;51.474;7.228;2022-10-18T03:25:20;3.20;;;2.47;;
50968;SDS011;36982;51.474;7.228;2022-10-18T03:27:46;3.80;;;2.67;;
50968;SDS011;36982;51.474;7.228;2022-10-18T03:30:11;4.13;;;2.80;;
50968;SDS011;36982;51.474;7.228;2022-10-18T03:32:37;3.30;;;2.70;;
50968;SDS011;36982;51.474;7.228;2022-10-18T03:35:04;4.47;;;2.90;;
50968;SDS011;36982;51.474;7.228;2022-10-18T03:37:30;3.77;;;2.70;;
50968;SDS011;36982;51.474;7.228;2022-10-18T03:39:56;3.70;;;2.87;;
50968;SDS011;36982;51.474;7.228;2022-10-18T03:42:21;3.90;;;2.83;;
50968;SDS011;36982;51.474;7.228;2022-10-18T03:44:47;4.23;;;2.90;;
50968;SDS011;36982;51.474;7.228;2022-10-18T03:47:13;3.67;;;3.00;;
50968;SDS011;36982;51.474;7.228;2022-10-18T03:49:38;5.40;;;2.90;;
50968;SDS011;36982;51.474;7.228;2022-10-18T03:52:04;4.13;;;3.10;;
50968;SDS011;36982;51.474;7.228;2022-10-18T03:54:29;5.23;;;3.07;;
50968;SDS011;36982;51.474;7.228;2022-10-18T03:56:55;4.63;;;2.90;;
50968;SDS011;36982;51.474;7.228;2022-10-18T03:59:21;6.00;;;3.13;;
50968;SDS011;36982;51.474;7.228;2022-10-18T04:01:47;5.33;;;3.10;;
50968;SDS011;36982;51.474;7.228;2022-10-18T04:04:13;4.63;;;3.20;;
50968;SDS011;36982;51.474;7.228;2022-10-18T04:06:38;6.30;;;3.67;;
50968;SDS011;36982;51.474;7.228;2022-10-18T04:09:04;6.30;;;3.50;;
50968;SDS011;36982;51.474;7.228;2022-10-18T04:11:30;5.57;;;3.30;;
50968;SDS011;36982;51.474;7.228;2022-10-18T04:13:55;4.53;;;3.20;;
50968;SDS011;36982;51.474;7.228;2022-10-18T04:16:21;5.83;;;3.00;;
50968;SDS011;36982;51.474;7.228;2022-10-18T04:18:47;4.10;;;3.50;;
50968;SDS011;36982;51.474;7.228;2022-10-18T04:21:12;7.03;;;3.43;;
50968;SDS011;36982;51.474;7.228;2022-10-18T04:23:38;4.53;;;3.47;;
50968;SDS011;36982;51.474;7.228;2022-10-18T04:26:04;6.30;;;3.50;;
50968;SDS011;36982;51.474;7.228;2022-10-18T04:28:30;4.53;;;3.27;;
50968;SDS011;36982;51.474;7.228;2022-10-18T04:30:57;6.10;;;4.00;;
50968;SDS011;36982;51.474;7.228;2022-10-18T04:33:22;5.93;;;3.57;;
50968;SDS011;36982;51.474;7.228;2022-10-18T04:35:49;4.50;;;3.63;;
50968;SDS011;36982;51.474;7.228;2022-10-18T04:38:16;4.60;;;3.67;;
50968;SDS011;36982;51.474;7.228;2022-10-18T04:40:41;5.53;;;4.00;;
50968;SDS011;36982;51.474;7.228;2022-10-18T04:43:07;5.57;;;4.20;;
50968;SDS011;36982;51.474;7.228;2022-10-18T04:45:33;6.70;;;4.10;;
50968;SDS011;36982;51.474;7.228;2022-10-18T04:47:58;8.70;;;4.67;;
50968;SDS011;36982;51.474;7.228;2022-10-18T04:50:24;6.00;;;4.37;;
50968;SDS011;36982;51.474;7.228;2022-10-18T04:52:49;8.10;;;5.43;;
50968;SDS011;36982;51.474;7.228;2022-10-18T04:55:17;9.43;;;4.53;;
50968;SDS011;36982;51.474;7.228;2022-10-18T04:57:43;8.73;;;5.60;;
50968;SDS011;36982;51.474;7.228;2022-10-18T05:00:08;8.73;;;5.47;;
50968;SDS011;36982;51.474;7.228;2022-10-18T05:02:34;9.57;;;5.87;;
50968;SDS011;36982;51.474;7.228;2022-10-18T05:05:00;11.07;;;6.50;;
50968;SDS011;36982;51.474;7.228;2022-10-18T05:07:25;9.33;;;5.90;;
50968;SDS011;36982;51.474;7.228;2022-10-18T05:09:54;9.87;;;5.87;;
50968;SDS011;36982;51.474;7.228;2022-10-18T05:12:20;10.93;;;6.80;;
50968;SDS011;36982;51.474;7.228;2022-10-18T05:14:46;10.77;;;6.33;;
50968;SDS011;36982;51.474;7.228;2022-10-18T05:17:12;10.07;;;6.50;;
50968;SDS011;36982;51.474;7.228;2022-10-18T05:19:38;8.20;;;6.20;;
50968;SDS011;36982;51.474;7.228;2022-10-18T05:22:03;8.40;;;5.97;;
50968;SDS011;36982;51.474;7.228;2022-10-18T05:24:29;10.50;;;6.93;;
50968;SDS011;36982;51.474;7.228;2022-10-18T05:26:55;13.30;;;7.43;;
50968;SDS011;36982;51.474;7.228;2022-10-18T05:29:21;14.20;;;8.03;;
50968;SDS011;36982;51.474;7.228;2022-10-18T05:31:47;15.17;;;8.30;;
50968;SDS011;36982;51.474;7.228;2022-10-18T05:34:13;9.57;;;7.00;;
50968;SDS011;36982;51.474;7.228;2022-10-18T05:36:39;11.53;;;7.80;;
50968;SDS011;36982;51.474;7.228;2022-10-18T05:39:04;13.33;;;8.40;;
50968;SDS011;36982;51.474;7.228;2022-10-18T05:41:30;15.83;;;9.20;;
50968;SDS011;36982;51.474;7.228;2022-10-18T05:43:56;12.23;;;7.97;;
50968;SDS011;36982;51.474;7.228;2022-10-18T05:46:22;16.57;;;9.93;;
50968;SDS011;36982;51.474;7.228;2022-10-18T05:48:48;15.57;;;9.50;;
50968;SDS011;36982;51.474;7.228;2022-10-18T05:51:15;14.93;;;10.20;;
50968;SDS011;36982;51.474;7.228;2022-10-18T05:53:41;15.63;;;10.07;;
50968;SDS011;36982;51.474;7.228;2022-10-18T05:56:07;16.37;;;9.97;;
50968;SDS011;36982;51.474;7.228;2022-10-18T05:58:38;16.13;;;9.83;;
50968;SDS011;36982;51.474;7.228;2022-10-18T06:01:04;15.23;;;9.27;;
50968;SDS011;36982;51.474;7.228;2022-10-18T06:03:31;12.70;;;8.83;;
50968;SDS011;36982;51.474;7.228;2022-10-18T06:05:57;15.47;;;8.77;;
50968;SDS011;36982;51.474;7.228;2022-10-18T06:08:27;13.67;;;8.43;;
50968;SDS011;36982;51.474;7.228;2022-10-18T06:10:52;13.13;;;7.83;;
50968;SDS011;36982;51.474;7.228;2022-10-18T06:13:18;15.20;;;8.50;;
50968;SDS011;36982;51.474;7.228;2022-10-18T06:15:43;14.93;;;8.67;;
50968;SDS011;36982;51.474;7.228;2022-10-18T06:18:09;16.43;;;9.23;;
50968;SDS011;36982;51.474;7.228;2022-10-18T06:20:35;18.10;;;9.27;;
50968;SDS011;36982;51.474;7.228;2022-10-18T06:23:00;14.43;;;8.67;;
50968;SDS011;36982;51.474;7.228;2022-10-18T06:25:26;13.43;;;8.43;;
50968;SDS011;36982;51.474;7.228;2022-10-18T06:27:51;13.90;;;8.47;;
50968;SDS011;36982;51.474;7.228;2022-10-18T06:30:17;11.83;;;7.03;;
50968;SDS011;36982;51.474;7.228;2022-10-18T06:32:42;14.40;;;8.97;;
50968;SDS011;36982;51.474;7.228;2022-10-18T06:35:08;14.23;;;8.47;;
50968;SDS011;36982;51.474;7.228;2022-10-18T06:37:34;14.53;;;8.80;;
50968;SDS011;36982;51.474;7.228;2022-10-18T06:40:00;15.33;;;9.10;;
50968;SDS011;36982;51.474;7.228;2022-10-18T06:42:27;13.30;;;9.07;;
50968;SDS011;36982;51.474;7.228;2022-10-18T06:44:52;13.63;;;8.87;;
50968;SDS011;36982;51.474;7.228;2022-10-18T06:47:18;13.87;;;9.17;;
50968;SDS011;36982;51.474;7.228;2022-10-18T06:49:43;13.70;;;8.53;;
50968;SDS011;36982;51.474;7.228;2022-10-18T06:52:09;13.17;;;9.03;;
50968;SDS011;36982;51.474;7.228;2022-10-18T06:54:35;14.60;;;9.57;;
50968;SDS011;36982;51.474;7.228;2022-10-18T06:57:00;15.07;;;8.37;;
50968;SDS011;36982;51.474;7.228;2022-10-18T06:59:27;12.43;;;8.40;;
50968;SDS011;36982;51.474;7.228;2022-10-18T07:01:53;14.70;;;9.70;;
50968;SDS011;36982;51.474;7.228;2022-10-18T07:04:18;16.93;;;11.37;;
50968;SDS011;36982;51.474;7.228;2022-10-18T07:06:44;14.13;;;10.27;;
50968;SDS011;36982;51.474;7.228;2022-10-18T07:09:10;14.47;;;10.00;;
50968;SDS011;36982;51.474;7.228;2022-10-18T07:11:36;16.30;;;10.80;;
50968;SDS011;36982;51.474;7.228;2022-10-18T07:14:01;17.10;;;10.50;;
50968;SDS011;36982;51.474;7.228;2022-10-18T07:16:28;13.73;;;9.03;;
50968;SDS011;36982;51.474;7.228;2022-10-18T07:18:55;16.13;;;10.77;;
50968;SDS011;36982;51.474;7.228;2022-10-18T07:21:22;17.40;;;10.50;;
50968;SDS011;36982;51.474;7.228;2022-10-18T07:23:49;15.27;;;9.63;;
50968;SDS011;36982;51.474;7.228;2022-10-18T07:28:43;15.03;;;10.23;;
50968;SDS011;36982;51.474;7.228;2022-10-18T07:31:11;19.87;;;11.27;;
50968;SDS011;36982;51.474;7.228;2022-10-18T07:33:37;16.80;;;10.10;;
50968;SDS011;36982;51.474;7.228;2022-10-18T07:36:04;20.43;;;11.63;;
50968;SDS011;36982;51.474;7.228;2022-10-18T07:38:31;17.00;;;11.23;;
50968;SDS011;36982;51.474;7.228;2022-10-18T07:40:57;17.23;;;10.13;;
50968;SDS011;36982;51.474;7.228;2022-10-18T07:43:24;20.83;;;11.37;;
50968;SDS011;36982;51.474;7.228;2022-10-18T07:45:50;15.90;;;10.73;;
50968;SDS011;36982;51.474;7.228;2022-10-18T07:48:20;23.57;;;12.80;;
50968;SDS011;36982;51.474;7.228;2022-10-18T07:50:45;24.30;;;14.13;;
50968;SDS011;36982;51.474;7.228;2022-10-18T07:53:11;25.00;;;14.07;;
50968;SDS011;36982;51.474;7.228;2022-10-18T07:55:37;23.97;;;15.00;;
50968;SDS011;36982;51.474;7.228;2022-10-18T07:58:02;22.33;;;13.73;;
50968;SDS011;36982;51.474;7.228;2022-10-18T08:00:28;26.17;;;15.67;;
50968;SDS011;36982;51.474;7.228;2022-10-18T08:02:57;28.37;;;15.50;;
50968;SDS011;36982;51.474;7.228;2022-10-18T08:05:23;29.17;;;15.20;;
50968;SDS011;36982;51.474;7.228;2022-10-18T08:07:50;30.90;;;14.97;;
50968;SDS011;36982;51.474;7.228;2022-10-18T08:12:53;28.42;;;16.35;;
50968;SDS011;36982;51.474;7.228;2022-10-18T08:15:19;26.07;;;15.07;;
50968;SDS011;36982;51.474;7.228;2022-10-18T08:17:48;28.30;;;17.17;;
50968;SDS011;36982;51.474;7.228;2022-10-18T08:20:14;28.30;;;16.90;;
50968;SDS011;36982;51.474;7.228;2022-10-18T08:22:40;29.53;;;18.73;;
50968;SDS011;36982;51.474;7.228;2022-10-18T08:25:05;31.70;;;18.10;;
50968;SDS011;36982;51.474;7.228;2022-10-18T08:27:31;31.73;;;19.43;;
50968;SDS011;36982;51.474;7.228;2022-10-18T08:29:57;32.90;;;19.40;;
50968;SDS011;36982;51.474;7.228;2022-10-18T08:32:23;30.33;;;19.37;;
50968;SDS011;36982;51.474;7.228;2022-10-18T08:34:49;29.67;;;18.10;;
50968;SDS011;36982;51.474;7.228;2022-10-18T08:37:15;39.47;;;23.53;;
50968;SDS011;36982;51.474;7.228;2022-10-18T08:39:41;37.47;;;22.27;;
50968;SDS011;36982;51.474;7.228;2022-10-18T08:45:08;35.50;;;22.30;;
50968;SDS011;36982;51.474;7.228;2022-10-18T08:47:38;34.30;;;20.90;;
50968;SDS011;36982;51.474;7.228;2022-10-18T08:50:07;34.50;;;21.33;;
50968;SDS011;36982;51.474;7.228;2022-10-18T08:55:14;46.43;;;22.43;;
50968;SDS011;36982;51.474;7.228;2022-10-18T08:57:58;35.58;;;20.90;;
50968;SDS011;36982;51.474;7.228;2022-10-18T09:00:24;41.50;;;23.45;;
50968;SDS011;36982;51.474;7.228;2022-10-18T09:08:28;49.67;;;26.13;;
50968;SDS011;36982;51.474;7.228;2022-10-18T09:11:23;46.47;;;25.37;;
50968;SDS011;36982;51.474;7.228;2022-10-18T09:24:25;44.17;;;25.53;;
50968;SDS011;36982;51.474;7.228;2022-10-18T09:27:02;47.93;;;27.30;;
50968;SDS011;36982;51.474;7.228;2022-10-18T09:34:55;46.43;;;25.80;;
50968;SDS011;36982;51.474;7.228;2022-10-18T09:37:21;48.03;;;27.80;;
50968;SDS011;36982;51.474;7.228;2022-10-18T09:40:03;49.30;;;26.67;;
50968;SDS011;36982;51.474;7.228;2022-10-18T09:42:39;47.30;;;27.50;;
50968;SDS011;36982;51.474;7.228;2022-10-18T09:45:21;41.87;;;25.27;;
50968;SDS011;36982;51.474;7.228;2022-10-18T09:48:10;42.33;;;26.00;;
50968;SDS011;36982;51.474;7.228;2022-10-18T09:50:41;46.20;;;26.90;;
50968;SDS011;36982;51.474;7.228;2022-10-18T09:53:15;49.43;;;26.43;;
50968;SDS011;36982;51.474;7.228;2022-10-18T09:58:37;44.03;;;25.00;;
50968;SDS011;36982;51.474;7.228;2022-10-18T10:01:06;42.77;;;24.90;;
50968;SDS011;36982;51.474;7.228;2022-10-18T10:03:34;44.50;;;24.90;;
50968;SDS011;36982;51.474;7.228;2022-10-18T10:08:46;40.60;;;24.33;;
50968;SDS011;36982;51.474;7.228;2022-10-18T10:14:06;47.43;;;25.97;;
50968;SDS011;36982;51.474;7.228;2022-10-18T10:16:32;39.03;;;26.27;;
50968;SDS011;36982;51.474;7.228;2022-10-18T10:19:07;42.80;;;26.50;;
50968;SDS011;36982;51.474;7.228;2022-10-18T10:22:05;40.80;;;26.50;;
50968;SDS011;36982;51.474;7.228;2022-10-18T10:27:12;42.25;;;27.52;;
50968;SDS011;36982;51.474;7.228;2022-10-18T10:32:14;41.83;;;27.30;;
50968;SDS011;36982;51.474;7.228;2022-10-18T10:34:41;39.30;;;26.23;;
50968;SDS011;36982;51.474;7.228;2022-10-18T10:37:20;35.33;;;25.30;;
50968;SDS011;36982;51.474;7.228;2022-10-18T10:40:07;34.97;;;24.85;;
50968;SDS011;36982;51.474;7.228;2022-10-18T10:42:47;32.35;;;23.52;;
50968;SDS011;36982;51.474;7.228;2022-10-18T10:45:33;28.85;;;21.42;;
50968;SDS011;36982;51.474;7.228;2022-10-18T10:48:03;31.45;;;22.90;;
50968;SDS011;36982;51.474;7.228;2022-10-18T10:50:58;31.15;;;22.13;;
50968;SDS011;36982;51.474;7.228;2022-10-18T10:55:54;30.37;;;22.37;;
50968;SDS011;36982;51.474;7.228;2022-10-18T10:58:21;34.45;;;23.73;;
50968;SDS011;36982;51.474;7.228;2022-10-18T11:00:47;33.50;;;23.33;;
50968;SDS011;36982;51.474;7.228;2022-10-18T11:03:20;36.08;;;24.25;;
50968;SDS011;36982;51.474;7.228;2022-10-18T11:05:53;38.72;;;24.05;;
50968;SDS011;36982;51.474;7.228;2022-10-18T11:08:21;34.92;;;23.75;;
50968;SDS011;36982;51.474;7.228;2022-10-18T11:11:03;38.28;;;24.12;;
50968;SDS011;36982;51.474;7.228;2022-10-18T11:13:50;32.47;;;22.85;;
50968;SDS011;36982;51.474;7.228;2022-10-18T11:16:26;33.97;;;23.15;;
50968;SDS011;36982;51.474;7.228;2022-10-18T11:18:57;31.95;;;22.52;;
50968;SDS011;36982;51.474;7.228;2022-10-18T11:21:38;34.70;;;23.23;;
50968;SDS011;36982;51.474;7.228;2022-10-18T11:24:06;33.43;;;24.43;;
50968;SDS011;36982;51.474;7.228;2022-10-18T11:26:59;31.02;;;21.67;;
50968;SDS011;36982;51.474;7.228;2022-10-18T11:29:34;30.35;;;21.95;;
50968;SDS011;36982;51.474;7.228;2022-10-18T11:37:53;31.00;;;22.45;;
50968;SDS011;36982;51.474;7.228;2022-10-18T11:43:22;29.85;;;22.05;;
50968;SDS011;36982;51.474;7.228;2022-10-18T11:51:46;26.62;;;18.42;;
50968;SDS011;36982;51.474;7.228;2022-10-18T11:54:29;25.98;;;19.00;;
50968;SDS011;36982;51.474;7.228;2022-10-18T11:57:17;26.37;;;19.37;;
50968;SDS011;36982;51.474;7.228;2022-10-18T12:05:15;27.60;;;20.95;;
50968;SDS011;36982;51.474;7.228;2022-10-18T12:07:44;27.37;;;19.87;;
50968;SDS011;36982;51.474;7.228;2022-10-18T12:10:17;25.67;;;18.60;;
50968;SDS011;36982;51.474;7.228;2022-10-18T12:12:52;28.42;;;19.30;;
50968;SDS011;36982;51.474;7.228;2022-10-18T12:15:23;24.30;;;17.10;;
50968;SDS011;36982;51.474;7.228;2022-10-18T12:18:01;21.83;;;15.43;;
50968;SDS011;36982;51.474;7.228;2022-10-18T12:20:32;21.87;;;14.40;;
50968;SDS011;36982;51.474;7.228;2022-10-18T12:23:03;18.70;;;12.05;;
50968;SDS011;36982;51.474;7.228;2022-10-18T12:25:38;18.20;;;11.53;;
50968;SDS011;36982;51.474;7.228;2022-10-18T12:33:19;13.30;;;8.43;;
50968;SDS011;36982;51.474;7.228;2022-10-18T12:38:35;13.27;;;7.67;;
50968;SDS011;36982;51.474;7.228;2022-10-18T12:41:04;14.20;;;8.43;;
50968;SDS011;36982;51.474;7.228;2022-10-18T12:43:31;12.90;;;7.82;;
50968;SDS011;36982;51.474;7.228;2022-10-18T12:46:02;11.35;;;6.62;;
50968;SDS011;36982;51.474;7.228;2022-10-18T12:48:36;12.35;;;7.15;;
50968;SDS011;36982;51.474;7.228;2022-10-18T12:51:19;11.45;;;5.97;;
50968;SDS011;36982;51.474;7.228;2022-10-18T12:58:51;10.70;;;5.12;;
50968;SDS011;36982;51.474;7.228;2022-10-18T13:01:36;7.62;;;4.40;;
50968;SDS011;36982;51.474;7.228;2022-10-18T13:11:50;6.90;;;4.68;;
50968;SDS011;36982;51.474;7.228;2022-10-18T13:22:49;11.57;;;4.67;;
50968;SDS011;36982;51.474;7.228;2022-10-18T13:38:43;7.75;;;3.78;;
50968;SDS011;36982;51.474;7.228;2022-10-18T13:52:03;7.53;;;3.35;;
50968;SDS011;36982;51.474;7.228;2022-10-18T14:00:10;4.10;;;2.30;;
50968;SDS011;36982;51.474;7.228;2022-10-18T14:06:17;7.73;;;2.23;;
50968;SDS011;36982;51.474;7.228;2022-10-18T14:08:48;3.63;;;2.20;;
50968;SDS011;36982;51.474;7.228;2022-10-18T14:11:30;5.80;;;2.65;;
50968;SDS011;36982;51.474;7.228;2022-10-18T14:14:14;6.22;;;2.90;;
50968;SDS011;36982;51.474;7.228;2022-10-18T14:22:25;5.85;;;2.33;;
50968;SDS011;36982;51.474;7.228;2022-10-18T14:24:58;5.43;;;2.17;;
50968;SDS011;36982;51.474;7.228;2022-10-18T14:27:27;7.43;;;2.40;;
50968;SDS011;36982;51.474;7.228;2022-10-18T14:32:44;5.28;;;2.60;;
50968;SDS011;36982;51.474;7.228;2022-10-18T14:35:15;6.67;;;2.47;;
50968;SDS011;36982;51.474;7.228;2022-10-18T14:37:44;5.78;;;2.10;;
50968;SDS011;36982;51.474;7.228;2022-10-18T14:40:32;7.87;;;2.43;;
50968;SDS011;36982;51.474;7.228;2022-10-18T14:43:01;6.43;;;2.22;;
50968;SDS011;36982;51.474;7.228;2022-10-18T14:45:28;7.68;;;2.10;;
50968;SDS011;36982;51.474;7.228;2022-10-18T14:47:53;7.23;;;1.93;;
50968;SDS011;36982;51.474;7.228;2022-10-18T14:50:20;5.50;;;2.10;;
50968;SDS011;36982;51.474;7.228;2022-10-18T14:52:47;6.10;;;2.50;;
50968;SDS011;36982;51.474;7.228;2022-10-18T14:55:23;8.80;;;2.60;;
50968;SDS011;36982;51.474;7.228;2022-10-18T14:57:50;6.90;;;2.13;;
50968;SDS011;36982;51.474;7.228;2022-10-18T15:00:20;8.13;;;2.30;;
50968;SDS011;36982;51.474;7.228;2022-10-18T15:02:49;6.00;;;1.85;;
50968;SDS011;36982;51.474;7.228;2022-10-18T15:07:46;7.62;;;1.90;;
50968;SDS011;36982;51.474;7.228;2022-10-18T15:10:17;7.77;;;2.10;;
50968;SDS011;36982;51.474;7.228;2022-10-18T15:12:48;7.85;;;2.25;;
50968;SDS011;36982;51.474;7.228;2022-10-18T15:15:24;4.12;;;1.80;;
50968;SDS011;36982;51.474;7.228;2022-10-18T15:17:52;9.48;;;2.75;;
50968;SDS011;36982;51.474;7.228;2022-10-18T15:22:44;8.80;;;2.00;;
50968;SDS011;36982;51.474;7.228;2022-10-18T15:27:40;7.40;;;1.73;;
50968;SDS011;36982;51.474;7.228;2022-10-18T15:32:56;8.13;;;2.08;;
50968;SDS011;36982;51.474;7.228;2022-10-18T15:37:51;9.43;;;1.87;;
50968;SDS011;36982;51.474;7.228;2022-10-18T15:42:50;5.67;;;1.77;;
50968;SDS011;36982;51.474;7.228;2022-10-18T15:45:25;6.00;;;1.77;;
50968;SDS011;36982;51.474;7.228;2022-10-18T15:48:21;4.73;;;1.50;;
50968;SDS011;36982;51.474;7.228;2022-10-18T15:50:55;3.17;;;1.40;;
50968;SDS011;36982;51.474;7.228;2022-10-18T15:56:26;6.00;;;1.83;;
50968;SDS011;36982;51.474;7.228;2022-10-18T15:59:20;7.43;;;2.05;;
50968;SDS011;36982;51.474;7.228;2022-10-18T16:01:46;4.83;;;1.50;;
50968;SDS011;36982;51.474;7.228;2022-10-18T16:04:16;5.73;;;1.60;;
50968;SDS011;36982;51.474;7.228;2022-10-18T16:06:50;5.77;;;1.60;;
50968;SDS011;36982;51.474;7.228;2022-10-18T16:09:17;7.40;;;2.53;;
50968;SDS011;36982;51.474;7.228;2022-10-18T16:11:44;6.70;;;1.60;;
50968;SDS011;36982;51.474;7.228;2022-10-18T16:14:11;7.57;;;1.77;;
50968;SDS011;36982;51.474;7.228;2022-10-18T16:16:37;6.70;;;2.00;;
50968;SDS011;36982;51.474;7.228;2022-10-18T16:19:04;5.53;;;1.97;;
50968;SDS011;36982;51.474;7.228;2022-10-18T16:21:31;5.90;;;1.57;;
50968;SDS011;36982;51.474;7.228;2022-10-18T16:23:58;4.30;;;1.80;;
50968;SDS011;36982;51.474;7.228;2022-10-18T16:26:24;9.43;;;2.10;;
50968;SDS011;36982;51.474;7.228;2022-10-18T16:28:52;5.70;;;1.70;;
50968;SDS011;36982;51.474;7.228;2022-10-18T16:31:29;4.97;;;1.90;;
50968;SDS011;36982;51.474;7.228;2022-10-18T16:33:57;4.87;;;1.67;;
50968;SDS011;36982;51.474;7.228;2022-10-18T16:36:27;4.20;;;1.60;;
50968;SDS011;36982;51.474;7.228;2022-10-18T16:38:55;8.10;;;1.87;;
50968;SDS011;36982;51.474;7.228;2022-10-18T16:41:23;12.67;;;6.73;;
50968;SDS011;36982;51.474;7.228;2022-10-18T16:43:49;6.37;;;2.00;;
50968;SDS011;36982;51.474;7.228;2022-10-18T16:46:19;4.83;;;1.77;;
50968;SDS011;36982;51.474;7.228;2022-10-18T16:48:47;4.37;;;1.73;;
50968;SDS011;36982;51.474;7.228;2022-10-18T16:51:14;4.47;;;1.87;;
50968;SDS011;36982;51.474;7.228;2022-10-18T16:53:40;7.93;;;2.00;;
50968;SDS011;36982;51.474;7.228;2022-10-18T16:56:10;6.17;;;1.50;;
50968;SDS011;36982;51.474;7.228;2022-10-18T16:58:45;6.27;;;1.80;;
50968;SDS011;36982;51.474;7.228;2022-10-18T17:01:11;9.50;;;1.60;;
50968;SDS011;36982;51.474;7.228;2022-10-18T17:03:38;5.80;;;1.80;;
50968;SDS011;36982;51.474;7.228;2022-10-18T17:06:05;4.40;;;1.67;;
50968;SDS011;36982;51.474;7.228;2022-10-18T17:08:35;3.33;;;1.97;;
50968;SDS011;36982;51.474;7.228;2022-10-18T17:11:00;5.23;;;2.17;;
50968;SDS011;36982;51.474;7.228;2022-10-18T17:13:26;5.00;;;1.90;;
50968;SDS011;36982;51.474;7.228;2022-10-18T17:15:52;6.83;;;2.20;;
50968;SDS011;36982;51.474;7.228;2022-10-18T17:18:19;5.63;;;1.97;;
50968;SDS011;36982;51.474;7.228;2022-10-18T17:20:46;5.87;;;2.03;;
50968;SDS011;36982;51.474;7.228;2022-10-18T17:25:51;4.83;;;1.83;;
50968;SDS011;36982;51.474;7.228;2022-10-18T17:28:17;5.57;;;2.27;;
50968;SDS011;36982;51.474;7.228;2022-10-18T17:30:43;24.00;;;15.60;;
50968;SDS011;36982;51.474;7.228;2022-10-18T17:33:10;9.27;;;3.90;;
50968;SDS011;36982;51.474;7.228;2022-10-18T17:35:37;5.93;;;2.47;;
50968;SDS011;36982;51.474;7.228;2022-10-18T17:38:03;5.67;;;2.00;;
50968;SDS011;36982;51.474;7.228;2022-10-18T17:40:29;5.80;;;2.60;;
50968;SDS011;36982;51.474;7.228;2022-10-18T17:42:55;7.47;;;1.97;;
50968;SDS011;36982;51.474;7.228;2022-10-18T17:45:21;6.17;;;2.00;;
50968;SDS011;36982;51.474;7.228;2022-10-18T17:47:47;6.47;;;2.53;;
50968;SDS011;36982;51.474;7.228;2022-10-18T17:53:05;6.30;;;2.17;;